createdAt,value
2022-11-30T00:00:34.331Z,100790.22
2022-11-30T00:03:01.147Z,100784.94
2022-11-30T00:05:28.237Z,100782.66
2022-11-30T00:07:54.906Z,100778.13
2022-11-30T00:10:22.654Z,100787.63
2022-11-30T00:12:50.002Z,100775.53
2022-11-30T00:15:17.137Z,100774.50
2022-11-30T00:17:44.687Z,100765.50
2022-11-30T00:20:12.797Z,100766.75
2022-11-30T00:22:39.403Z,100775.78
2022-11-30T00:25:07.048Z,100770.53
2022-11-30T00:27:34.625Z,100761.09
2022-11-30T00:30:01.529Z,100764.56
2022-11-30T00:32:29.204Z,100766.94
2022-11-30T00:34:55.856Z,100770.66
2022-11-30T00:37:22.434Z,100771.09
2022-11-30T00:39:49.118Z,100777.78
2022-11-30T00:42:15.715Z,100779.56
2022-11-30T00:44:42.291Z,100783.06
2022-11-30T00:47:08.882Z,100778.06
2022-11-30T00:49:35.655Z,100779.91
2022-11-30T00:52:02.396Z,100776.31
2022-11-30T00:54:28.957Z,100773.38
2022-11-30T00:56:55.531Z,100772.50
2022-11-30T00:59:22.101Z,100771.94
2022-11-30T01:01:48.698Z,100770.19
2022-11-30T01:04:15.322Z,100767.16
2022-11-30T01:06:41.889Z,100778.75
2022-11-30T01:09:08.595Z,100774.47
2022-11-30T01:11:35.237Z,100780.22
2022-11-30T01:14:01.858Z,100785.56
2022-11-30T01:16:31.273Z,100780.41
2022-11-30T01:18:57.969Z,100777.09
2022-11-30T01:21:26.952Z,100780.41
2022-11-30T01:23:54.535Z,100776.88
2022-11-30T01:26:22.238Z,100775.63
2022-11-30T01:28:53.982Z,100775.97
2022-11-30T01:31:22.809Z,100775.44
2022-11-30T01:33:54.320Z,100778.03
2022-11-30T01:36:24.219Z,100780.69
2022-11-30T01:38:53.801Z,100776.03
2022-11-30T01:41:31.795Z,100771.84
2022-11-30T01:44:20.272Z,100766.69
2022-11-30T01:47:05.813Z,100760.53
2022-11-30T01:49:43.637Z,100756.25
2022-11-30T01:52:24.620Z,100754.63
2022-11-30T01:55:19.313Z,100758.41
2022-11-30T01:57:57.163Z,100761.84
2022-11-30T02:00:24.324Z,100754.19
2022-11-30T02:03:10.300Z,100757.84
2022-11-30T02:05:39.510Z,100759.63
2022-11-30T02:08:08.007Z,100763.81
2022-11-30T02:10:38.630Z,100761.31
2022-11-30T02:13:14.316Z,100766.53
2022-11-30T02:15:53.967Z,100762.34
2022-11-30T02:18:53.329Z,100764.75
2022-11-30T02:21:25.703Z,100767.34
2022-11-30T02:24:05.389Z,100763.97
2022-11-30T02:26:51.049Z,100756.22
2022-11-30T02:29:25.728Z,100754.50
2022-11-30T02:32:04.590Z,100751.59
2022-11-30T02:34:35.332Z,100749.00
2022-11-30T02:37:03.741Z,100742.88
2022-11-30T02:39:30.419Z,100735.97
2022-11-30T02:41:57.013Z,100734.22
2022-11-30T02:44:24.725Z,100736.00
2022-11-30T02:47:01.191Z,100736.31
2022-11-30T02:49:33.005Z,100732.88
2022-11-30T02:52:01.612Z,100731.25
2022-11-30T02:54:28.193Z,100739.78
2022-11-30T02:56:54.780Z,100747.66
2022-11-30T02:59:21.931Z,100744.28
2022-11-30T03:01:48.549Z,100738.31
2022-11-30T03:04:15.208Z,100741.88
2022-11-30T03:06:41.801Z,100746.53
2022-11-30T03:09:08.471Z,100749.63
2022-11-30T03:11:35.096Z,100747.22
2022-11-30T03:14:01.681Z,100742.13
2022-11-30T03:16:28.307Z,100742.22
2022-11-30T03:18:54.929Z,100743.81
2022-11-30T03:21:21.533Z,100747.25
2022-11-30T03:23:48.117Z,100746.28
2022-11-30T03:26:15.036Z,100749.03
2022-11-30T03:28:41.617Z,100752.16
2022-11-30T03:31:12.260Z,100757.72
2022-11-30T03:33:41.178Z,100768.94
2022-11-30T03:36:10.374Z,100769.69
2022-11-30T03:38:37.650Z,100769.53
2022-11-30T03:41:13.293Z,100767.13
2022-11-30T03:43:40.239Z,100771.06
2022-11-30T03:46:06.907Z,100764.50
2022-11-30T03:48:33.662Z,100761.84
2022-11-30T03:51:00.326Z,100769.53
2022-11-30T03:53:27.005Z,100755.66
2022-11-30T03:55:55.979Z,100758.47
2022-11-30T03:58:24.160Z,100761.09
2022-11-30T04:00:57.900Z,100761.97
2022-11-30T04:03:24.506Z,100755.09
2022-11-30T04:05:51.193Z,100755.47
2022-11-30T04:08:17.780Z,100763.31
2022-11-30T04:10:46.988Z,100755.66
2022-11-30T04:13:14.006Z,100757.19
2022-11-30T04:15:40.673Z,100766.84
2022-11-30T04:18:07.288Z,100758.28
2022-11-30T04:20:38.833Z,100755.91
2022-11-30T04:23:07.059Z,100767.34
2022-11-30T04:25:33.644Z,100757.69
2022-11-30T04:28:00.263Z,100758.78
2022-11-30T04:30:26.858Z,100755.88
2022-11-30T04:32:53.432Z,100756.44
2022-11-30T04:35:20.009Z,100755.59
2022-11-30T04:37:46.658Z,100752.91
2022-11-30T04:40:13.617Z,100753.09
2022-11-30T04:42:40.209Z,100760.16
2022-11-30T04:45:07.411Z,100763.72
2022-11-30T04:47:33.991Z,100766.94
2022-11-30T04:50:00.694Z,100760.31
2022-11-30T04:52:27.294Z,100752.59
2022-11-30T04:54:53.868Z,100758.63
2022-11-30T04:57:20.675Z,100748.91
2022-11-30T04:59:47.284Z,100760.88
2022-11-30T05:02:13.962Z,100754.16
2022-11-30T05:04:40.614Z,100762.91
2022-11-30T05:07:07.519Z,100761.88
2022-11-30T05:09:34.105Z,100763.91
2022-11-30T05:12:01.072Z,100762.03
2022-11-30T05:14:27.700Z,100762.75
2022-11-30T05:16:54.269Z,100765.50
2022-11-30T05:19:20.936Z,100771.72
2022-11-30T05:21:47.520Z,100766.72
2022-11-30T05:24:14.123Z,100770.09
2022-11-30T05:26:40.805Z,100774.34
2022-11-30T05:29:07.443Z,100772.41
2022-11-30T05:31:34.139Z,100773.16
2022-11-30T05:34:00.734Z,100780.06
2022-11-30T05:36:27.318Z,100781.19
2022-11-30T05:38:54.025Z,100782.00
2022-11-30T05:41:20.614Z,100789.47
2022-11-30T05:43:47.264Z,100782.66
2022-11-30T05:46:13.955Z,100790.19
2022-11-30T05:48:40.573Z,100779.59
2022-11-30T05:51:16.109Z,100777.69
2022-11-30T05:53:43.845Z,100774.88
2022-11-30T05:56:16.351Z,100777.78
2022-11-30T05:58:43.670Z,100775.22
2022-11-30T06:01:26.665Z,100779.78
2022-11-30T06:03:54.126Z,100781.53
2022-11-30T06:06:21.254Z,100789.16
2022-11-30T06:08:49.207Z,100779.47
2022-11-30T06:11:16.661Z,100787.13
2022-11-30T06:13:43.260Z,100783.72
2022-11-30T06:16:09.885Z,100785.78
2022-11-30T06:18:37.775Z,100786.72
2022-11-30T06:21:10.368Z,100793.06
2022-11-30T06:23:37.634Z,100799.47
2022-11-30T06:26:10.469Z,100812.50
2022-11-30T06:28:37.924Z,100807.22
2022-11-30T06:31:06.659Z,100811.63
2022-11-30T06:33:33.630Z,100808.84
2022-11-30T06:36:00.245Z,100813.09
2022-11-30T06:38:26.851Z,100817.50
2022-11-30T06:40:53.520Z,100820.19
2022-11-30T06:43:20.421Z,100815.19
2022-11-30T06:45:47.451Z,100821.44
2022-11-30T06:48:14.700Z,100816.16
2022-11-30T06:50:45.496Z,100815.03
2022-11-30T06:53:15.460Z,100818.50
2022-11-30T06:55:42.049Z,100815.94
2022-11-30T06:58:09.963Z,100807.97
2022-11-30T07:00:37.158Z,100816.38
2022-11-30T07:03:04.858Z,100811.03
2022-11-30T07:05:36.071Z,100813.41
2022-11-30T07:08:02.699Z,100807.16
2022-11-30T07:10:29.406Z,100805.75
2022-11-30T07:12:56.026Z,100814.53
2022-11-30T07:15:22.705Z,100811.06
2022-11-30T07:17:49.297Z,100808.19
2022-11-30T07:20:15.915Z,100811.88
2022-11-30T07:22:42.534Z,100810.38
2022-11-30T07:25:09.626Z,100806.50
2022-11-30T07:27:36.225Z,100803.22
2022-11-30T07:30:03.298Z,100810.09
2022-11-30T07:32:29.861Z,100806.50
2022-11-30T07:34:56.441Z,100811.97
2022-11-30T07:37:23.035Z,100812.03
2022-11-30T07:39:49.608Z,100811.88
2022-11-30T07:42:16.397Z,100797.13
2022-11-30T07:44:43.050Z,100802.38
2022-11-30T07:47:09.683Z,100799.88
2022-11-30T07:49:36.274Z,100799.63
2022-11-30T07:52:02.870Z,100802.66
2022-11-30T07:54:29.509Z,100812.28
2022-11-30T07:56:56.112Z,100812.34
2022-11-30T07:59:22.794Z,100808.66
2022-11-30T08:01:49.615Z,100807.09
2022-11-30T08:04:16.299Z,100812.34
2022-11-30T08:06:43.009Z,100809.84
2022-11-30T08:09:14.261Z,100811.72
2022-11-30T08:11:44.510Z,100812.53
2022-11-30T08:14:12.340Z,100815.13
2022-11-30T08:16:39.027Z,100819.63
2022-11-30T08:19:05.645Z,100816.84
2022-11-30T08:21:32.500Z,100804.88
2022-11-30T08:23:59.184Z,100811.84
2022-11-30T08:26:31.549Z,100797.91
2022-11-30T08:29:00.280Z,100805.66
2022-11-30T08:31:30.548Z,100807.53
2022-11-30T08:33:59.863Z,100804.19
2022-11-30T08:36:28.682Z,100798.22
2022-11-30T08:38:57.854Z,100792.16
2022-11-30T08:41:25.115Z,100794.06
2022-11-30T08:43:52.723Z,100795.63
2022-11-30T08:57:33.522Z,100791.22
2022-11-30T09:00:00.155Z,100802.81
2022-11-30T09:02:27.326Z,100798.94
2022-11-30T09:04:53.927Z,100795.38
2022-11-30T09:07:20.593Z,100794.53
2022-11-30T09:09:47.422Z,100794.38
2022-11-30T09:12:14.057Z,100796.44
2022-11-30T09:14:40.667Z,100797.22
2022-11-30T09:17:07.244Z,100799.94
2022-11-30T09:19:33.840Z,100796.13
2022-11-30T09:22:00.436Z,100801.50
2022-11-30T09:24:27.087Z,100801.47
2022-11-30T09:26:56.925Z,100795.53
2022-11-30T09:29:23.949Z,100797.19
2022-11-30T09:31:50.542Z,100801.41
2022-11-30T09:34:17.156Z,100794.44
2022-11-30T09:36:43.795Z,100804.84
2022-11-30T09:39:11.287Z,100793.66
2022-11-30T09:42:02.528Z,100794.66
2022-11-30T09:44:42.022Z,100796.56
2022-11-30T09:47:33.099Z,100791.28
2022-11-30T09:50:14.165Z,100793.06
2022-11-30T09:52:44.730Z,100788.66
2022-11-30T09:55:18.089Z,100788.59
2022-11-30T09:57:54.496Z,100785.03
2022-11-30T10:00:23.610Z,100792.19
2022-11-30T10:02:53.161Z,100784.41
2022-11-30T10:05:23.694Z,100788.72
2022-11-30T10:08:12.904Z,100779.97
2022-11-30T10:10:44.510Z,100779.22
2022-11-30T10:13:26.540Z,100779.16
2022-11-30T10:16:14.685Z,100784.41
2022-11-30T10:19:07.047Z,100780.09
2022-11-30T10:22:07.718Z,100767.91
2022-11-30T10:24:55.584Z,100763.53
2022-11-30T10:27:36.838Z,100753.88
2022-11-30T10:30:06.518Z,100746.97
2022-11-30T10:32:38.495Z,100748.69
2022-11-30T10:35:33.689Z,100753.91
2022-11-30T10:38:05.517Z,100755.69
2022-11-30T10:40:45.806Z,100759.25
2022-11-30T10:43:24.407Z,100747.84
2022-11-30T10:45:51.583Z,100748.75
2022-11-30T10:48:40.288Z,100746.16
2022-11-30T10:51:08.329Z,100745.31
2022-11-30T10:53:34.918Z,100752.25
2022-11-30T10:56:11.482Z,100747.88
2022-11-30T10:58:49.949Z,100747.88
2022-11-30T11:01:33.557Z,100738.28
2022-11-30T11:04:17.840Z,100748.72
2022-11-30T11:06:50.390Z,100746.19
2022-11-30T11:09:36.902Z,100747.88
2022-11-30T11:12:15.487Z,100743.53
2022-11-30T11:14:42.108Z,100747.06
2022-11-30T11:17:17.923Z,100739.22
2022-11-30T11:19:49.937Z,100734.81
2022-11-30T11:22:22.684Z,100740.94
2022-11-30T11:24:53.541Z,100744.44
2022-11-30T11:27:26.047Z,100747.91
2022-11-30T11:30:01.860Z,100745.34
2022-11-30T11:32:29.302Z,100747.06
2022-11-30T11:34:56.513Z,100745.34
2022-11-30T11:37:33.847Z,100744.44
2022-11-30T11:40:16.328Z,100753.16
2022-11-30T11:42:49.381Z,100746.22
2022-11-30T11:45:26.271Z,100751.47
2022-11-30T11:48:05.352Z,100743.59
2022-11-30T11:51:05.608Z,100745.34
2022-11-30T11:53:24.505Z,100745.34
2022-11-30T11:55:55.708Z,100747.06
2022-11-30T11:58:38.322Z,100753.19
2022-11-30T12:01:38.499Z,100747.06
2022-11-30T12:04:36.661Z,100743.59
2022-11-30T12:07:23.198Z,100738.38
2022-11-30T12:10:51.381Z,100734.88
2022-11-30T12:13:18.346Z,100733.16
2022-11-30T12:16:03.337Z,100733.16
2022-11-30T12:18:51.430Z,100732.28
2022-11-30T12:21:42.931Z,100735.78
2022-11-30T12:24:34.283Z,100736.63
2022-11-30T12:27:33.701Z,100733.13
2022-11-30T12:30:03.742Z,100724.44
2022-11-30T12:33:07.324Z,100730.56
2022-11-30T12:35:49.533Z,100735.75
2022-11-30T12:38:37.848Z,100741.00
2022-11-30T12:41:17.121Z,100720.94
2022-11-30T12:44:11.680Z,100724.41
2022-11-30T12:46:59.702Z,100727.94
2022-11-30T12:49:44.426Z,100721.81
2022-11-30T12:52:49.542Z,100735.78
2022-11-30T12:55:30.516Z,100724.44
2022-11-30T12:58:12.750Z,100725.28
2022-11-30T13:00:48.560Z,100723.53
2022-11-30T13:03:33.568Z,100724.44
2022-11-30T13:06:05.878Z,100718.31
2022-11-30T13:08:49.038Z,100722.69
2022-11-30T13:11:38.592Z,100713.97
2022-11-30T13:14:14.471Z,100722.69
2022-11-30T13:16:43.439Z,100729.66
2022-11-30T13:19:46.777Z,100726.13
2022-11-30T13:22:24.058Z,100731.41
2022-11-30T13:25:09.951Z,100726.19
2022-11-30T13:27:58.177Z,100718.31
2022-11-30T13:30:56.445Z,100718.34
2022-11-30T13:33:35.461Z,100720.09
2022-11-30T13:36:14.439Z,100714.84
2022-11-30T13:38:41.087Z,100722.66
2022-11-30T13:41:08.794Z,100720.94
2022-11-30T13:43:41.740Z,100727.03
2022-11-30T13:46:15.603Z,100725.25
2022-11-30T13:48:44.751Z,100722.72
2022-11-30T13:51:12.716Z,100728.78
2022-11-30T13:53:40.663Z,100727.94
2022-11-30T13:56:19.271Z,100720.91
2022-11-30T13:59:22.913Z,100721.81
2022-11-30T14:04:44.777Z,100727.91
2022-11-30T14:07:36.992Z,100731.41
2022-11-30T14:10:23.761Z,100722.66
2022-11-30T14:13:10.036Z,100726.16
2022-11-30T14:15:39.554Z,100729.66
2022-11-30T14:18:08.820Z,100734.00
2022-11-30T14:20:47.720Z,100731.38
2022-11-30T14:23:38.821Z,100726.97
2022-11-30T14:26:11.639Z,100721.78
2022-11-30T14:28:52.191Z,100729.66
2022-11-30T14:31:24.486Z,100729.63
2022-11-30T14:33:57.534Z,100727.06
2022-11-30T14:36:32.967Z,100727.91
2022-11-30T14:38:59.597Z,100722.63
2022-11-30T14:41:28.785Z,100727.03
2022-11-30T14:44:14.363Z,100718.31
2022-11-30T14:46:41.807Z,100715.69
2022-11-30T14:49:17.335Z,100719.19
2022-11-30T14:51:48.307Z,100723.53
2022-11-30T14:54:38.731Z,100720.00
2022-11-30T14:57:27.924Z,100719.19
2022-11-30T14:59:56.282Z,100716.50
2022-11-30T15:02:31.048Z,100710.47
2022-11-30T15:04:59.210Z,100713.06
2022-11-30T15:07:27.894Z,100711.31
2022-11-30T15:10:29.776Z,100716.56
2022-11-30T15:12:58.471Z,100720.03
2022-11-30T15:15:27.050Z,100724.38
2022-11-30T15:17:56.667Z,100717.34
2022-11-30T15:20:39.545Z,100713.03
2022-11-30T15:23:13.563Z,100718.31
2022-11-30T15:25:45.295Z,100716.56
2022-11-30T15:28:17.385Z,100711.31
2022-11-30T15:30:47.368Z,100710.38
2022-11-30T15:33:22.221Z,100714.81
2022-11-30T15:36:14.205Z,100712.13
2022-11-30T15:38:39.099Z,100713.94
2022-11-30T15:41:18.713Z,100707.81
2022-11-30T15:43:50.427Z,100714.75
2022-11-30T15:46:36.867Z,100712.94
2022-11-30T15:49:06.300Z,100715.63
2022-11-30T15:51:41.281Z,100713.94
2022-11-30T15:54:07.885Z,100708.69
2022-11-30T15:56:34.959Z,100712.19
2022-11-30T15:59:02.909Z,100713.00
2022-11-30T16:01:30.071Z,100705.13
2022-11-30T16:03:56.644Z,100703.25
2022-11-30T16:06:28.677Z,100718.19
2022-11-30T16:08:55.772Z,100722.53
2022-11-30T16:11:22.602Z,100720.69
2022-11-30T16:13:49.283Z,100718.13
2022-11-30T16:16:22.265Z,100715.53
2022-11-30T16:18:49.615Z,100710.38
2022-11-30T16:21:18.678Z,100711.88
2022-11-30T16:23:45.510Z,100717.84
2022-11-30T16:26:43.147Z,100722.47
2022-11-30T16:29:00.537Z,100712.97
2022-11-30T16:31:27.171Z,100713.88
2022-11-30T16:33:53.780Z,100714.78
2022-11-30T16:36:21.379Z,100711.28
2022-11-30T16:38:52.283Z,100709.59
2022-11-30T16:41:19.743Z,100703.34
2022-11-30T16:43:48.505Z,100707.56
2022-11-30T16:46:18.429Z,100706.66
2022-11-30T16:48:45.433Z,100713.41
2022-11-30T16:51:21.033Z,100706.34
2022-11-30T16:53:47.809Z,100710.81
2022-11-30T16:56:15.532Z,100716.72
2022-11-30T16:58:43.244Z,100716.72
2022-11-30T17:01:34.722Z,100721.16
2022-11-30T17:04:11.659Z,100711.56
2022-11-30T17:06:38.378Z,100723.78
2022-11-30T17:09:04.958Z,100726.41
2022-11-30T17:11:34.412Z,100716.88
2022-11-30T17:14:01.056Z,100712.66
2022-11-30T17:16:27.776Z,100719.63
2022-11-30T17:18:54.659Z,100722.97
2022-11-30T17:21:28.669Z,100716.88
2022-11-30T17:23:55.547Z,100724.09
2022-11-30T17:26:22.239Z,100731.81
2022-11-30T17:28:48.814Z,100728.31
2022-11-30T17:31:15.649Z,100731.94
2022-11-30T17:33:47.930Z,100731.06
2022-11-30T17:36:16.791Z,100732.91
2022-11-30T17:38:43.384Z,100746.09
2022-11-30T17:41:18.523Z,100750.50
2022-11-30T17:43:46.469Z,100742.72
2022-11-30T17:46:18.759Z,100742.88
2022-11-30T17:48:45.705Z,100741.09
2022-11-30T17:51:13.175Z,100744.63
2022-11-30T17:53:41.334Z,100744.44
2022-11-30T17:56:11.163Z,100745.34
2022-11-30T17:58:43.450Z,100743.56
2022-11-30T18:01:25.831Z,100741.94
2022-11-30T18:03:53.705Z,100745.44
2022-11-30T18:06:20.783Z,100745.59
2022-11-30T18:08:47.711Z,100744.69
2022-11-30T18:11:19.359Z,100749.25
2022-11-30T18:13:46.905Z,100743.03
2022-11-30T18:16:17.335Z,100733.59
2022-11-30T18:18:47.715Z,100735.94
2022-11-30T18:21:17.215Z,100738.72
2022-11-30T18:23:43.830Z,100739.25
2022-11-30T18:26:16.468Z,100737.59
2022-11-30T18:28:43.822Z,100735.06
2022-11-30T18:31:10.509Z,100727.38
2022-11-30T18:33:37.883Z,100729.25
2022-11-30T18:36:05.907Z,100745.53
2022-11-30T18:38:37.238Z,100748.09
2022-11-30T18:41:05.380Z,100743.63
2022-11-30T18:43:31.972Z,100749.63
2022-11-30T18:46:06.299Z,100751.31
2022-11-30T18:48:33.410Z,100759.09
2022-11-30T18:51:00.523Z,100753.94
2022-11-30T18:53:27.123Z,100742.56
2022-11-30T18:55:56.425Z,100743.38
2022-11-30T18:58:23.010Z,100747.75
2022-11-30T19:00:50.724Z,100753.94
2022-11-30T19:03:17.339Z,100750.38
2022-11-30T19:05:43.931Z,100745.25
2022-11-30T19:08:14.289Z,100749.66
2022-11-30T19:10:40.865Z,100755.38
2022-11-30T19:13:07.642Z,100752.56
2022-11-30T19:15:39.018Z,100756.94
2022-11-30T19:18:06.218Z,100753.63
2022-11-30T19:20:38.895Z,100761.47
2022-11-30T19:23:08.151Z,100750.25
2022-11-30T19:25:34.784Z,100747.06
2022-11-30T19:28:01.488Z,100759.84
2022-11-30T19:30:28.147Z,100765.97
2022-11-30T19:32:54.798Z,100771.91
2022-11-30T19:35:21.881Z,100777.09
2022-11-30T19:37:48.676Z,100772.78
2022-11-30T19:40:15.349Z,100775.44
2022-11-30T19:42:41.920Z,100775.47
2022-11-30T19:45:10.168Z,100773.72
2022-11-30T19:47:36.787Z,100775.38
2022-11-30T19:50:04.997Z,100775.38
2022-11-30T19:52:31.588Z,100776.31
2022-11-30T19:54:58.188Z,100776.34
2022-11-30T19:57:24.818Z,100775.47
2022-11-30T19:59:51.437Z,100777.25
2022-11-30T20:02:18.055Z,100774.53
2022-11-30T20:04:44.749Z,100762.56
2022-11-30T20:07:11.359Z,100762.66
2022-11-30T20:09:37.954Z,100759.25
2022-11-30T20:12:04.884Z,100757.47
2022-11-30T20:14:31.477Z,100753.38
2022-11-30T20:16:58.137Z,100751.66
2022-11-30T20:19:24.793Z,100748.13
2022-11-30T20:21:51.453Z,100754.84
2022-11-30T20:24:18.019Z,100758.88
2022-11-30T20:26:44.997Z,100758.16
2022-11-30T20:29:17.094Z,100754.69
2022-11-30T20:31:45.921Z,100754.81
2022-11-30T20:34:12.530Z,100750.09
2022-11-30T20:36:39.300Z,100747.59
2022-11-30T20:39:06.544Z,100753.47
2022-11-30T20:41:33.951Z,100752.94
2022-11-30T20:44:00.991Z,100763.22
2022-11-30T20:46:30.253Z,100753.63
2022-11-30T20:48:57.846Z,100757.16
2022-11-30T20:51:31.674Z,100748.31
2022-11-30T20:54:04.004Z,100754.50
2022-11-30T20:56:30.697Z,100752.72
2022-11-30T20:59:00.862Z,100757.16
2022-11-30T21:01:27.595Z,100756.31
2022-11-30T21:03:54.213Z,100763.88
2022-11-30T21:06:20.788Z,100755.38
2022-11-30T21:08:47.440Z,100751.84
2022-11-30T21:11:16.544Z,100761.69
2022-11-30T21:13:45.377Z,100762.41
2022-11-30T21:16:13.997Z,100766.88
2022-11-30T21:18:42.310Z,100771.34
2022-11-30T21:21:15.288Z,100771.22
2022-11-30T21:23:42.130Z,100773.66
2022-11-30T21:26:21.264Z,100776.84
2022-11-30T21:28:49.673Z,100777.66
2022-11-30T21:31:16.755Z,100792.94
2022-11-30T21:33:48.895Z,100797.53
2022-11-30T21:36:19.509Z,100801.16
2022-11-30T21:38:46.235Z,100810.56
2022-11-30T21:41:14.250Z,100818.34
2022-11-30T21:43:41.486Z,100821.84
2022-11-30T21:46:13.439Z,100823.56
2022-11-30T21:48:42.234Z,100814.94
2022-11-30T21:51:11.544Z,100814.06
2022-11-30T21:53:43.788Z,100820.25
2022-11-30T21:56:14.521Z,100823.72
2022-11-30T21:58:43.481Z,100820.19
2022-11-30T22:01:19.128Z,100815.75
2022-11-30T22:03:46.392Z,100816.53
2022-11-30T22:06:15.630Z,100816.66
2022-11-30T22:08:42.942Z,100827.22
2022-11-30T22:11:12.462Z,100820.13
2022-11-30T22:13:40.650Z,100812.31
2022-11-30T22:16:13.103Z,100818.78
2022-11-30T22:18:41.695Z,100819.56
2022-11-30T22:21:14.246Z,100818.78
2022-11-30T22:24:02.954Z,100808.47
2022-11-30T22:26:35.371Z,100812.69
2022-11-30T22:29:04.402Z,100816.16
2022-11-30T22:31:40.094Z,100802.28
2022-11-30T22:34:07.235Z,100797.25
2022-11-30T22:36:36.609Z,100792.75
2022-11-30T22:39:21.903Z,100788.97
2022-11-30T22:41:54.794Z,100788.34
2022-11-30T22:44:22.244Z,100791.13
2022-11-30T22:46:48.901Z,100781.00
2022-11-30T22:49:20.841Z,100791.13
2022-11-30T22:51:50.319Z,100791.66
2022-11-30T22:54:17.470Z,100792.31
2022-11-30T22:56:44.215Z,100788.78
2022-11-30T22:59:12.244Z,100787.88
2022-11-30T23:01:47.591Z,100788.97
2022-11-30T23:04:16.828Z,100789.72
2022-11-30T23:06:44.660Z,100786.31
2022-11-30T23:09:14.522Z,100789.56
2022-11-30T23:11:41.897Z,100791.97
2022-11-30T23:14:08.739Z,100796.34
2022-11-30T23:16:39.612Z,100784.84
2022-11-30T23:19:06.756Z,100784.06
2022-11-30T23:21:41.020Z,100783.06
2022-11-30T23:24:13.594Z,100775.16
2022-11-30T23:26:41.040Z,100777.69
2022-11-30T23:29:11.123Z,100772.66
2022-11-30T23:31:39.160Z,100771.81
2022-11-30T23:34:12.392Z,100787.97
2022-11-30T23:36:39.117Z,100783.56
2022-11-30T23:39:09.340Z,100785.00
2022-11-30T23:41:36.592Z,100785.06
2022-11-30T23:54:21.163Z,100798.44
2022-11-30T23:56:47.752Z,100802.03
2022-11-30T23:59:14.355Z,100791.84
